sensor_id;sensor_type;location;lat;lon;timestamp;P1;durP1;ratioP1;P2;durP2;ratioP2
34405;SDS011;20658;45.630;8.886;2024-02-21T00:01:04;105.20;;;65.72;;
34405;SDS011;20658;45.630;8.886;2024-02-21T00:03:37;104.20;;;62.65;;
34405;SDS011;20658;45.630;8.886;2024-02-21T00:06:06;100.70;;;61.20;;
34405;SDS011;20658;45.630;8.886;2024-02-21T00:08:36;103.78;;;61.08;;
34405;SDS011;20658;45.630;8.886;2024-02-21T00:11:04;93.75;;;57.95;;
34405;SDS011;20658;45.630;8.886;2024-02-21T00:13:33;94.38;;;58.38;;
34405;SDS011;20658;45.630;8.886;2024-02-21T00:16:02;95.70;;;54.90;;
34405;SDS011;20658;45.630;8.886;2024-02-21T00:18:31;95.40;;;55.92;;
34405;SDS011;20658;45.630;8.886;2024-02-21T00:21:05;93.43;;;57.13;;
34405;SDS011;20658;45.630;8.886;2024-02-21T00:23:40;103.28;;;60.85;;
34405;SDS011;20658;45.630;8.886;2024-02-21T00:26:08;100.50;;;61.55;;
34405;SDS011;20658;45.630;8.886;2024-02-21T00:28:37;101.57;;;57.97;;
34405;SDS011;20658;45.630;8.886;2024-02-21T00:31:10;101.93;;;61.95;;
34405;SDS011;20658;45.630;8.886;2024-02-21T00:33:44;104.05;;;57.90;;
34405;SDS011;20658;45.630;8.886;2024-02-21T00:36:12;92.38;;;54.92;;
34405;SDS011;20658;45.630;8.886;2024-02-21T00:38:42;81.60;;;50.30;;
34405;SDS011;20658;45.630;8.886;2024-02-21T00:41:16;86.90;;;51.65;;
34405;SDS011;20658;45.630;8.886;2024-02-21T00:43:44;103.00;;;53.15;;
34405;SDS011;20658;45.630;8.886;2024-02-21T00:46:14;89.70;;;55.55;;
34405;SDS011;20658;45.630;8.886;2024-02-21T00:48:43;94.28;;;56.22;;
34405;SDS011;20658;45.630;8.886;2024-02-21T00:51:11;97.32;;;55.33;;
34405;SDS011;20658;45.630;8.886;2024-02-21T00:53:40;93.15;;;54.95;;
34405;SDS011;20658;45.630;8.886;2024-02-21T00:56:10;98.25;;;55.80;;
34405;SDS011;20658;45.630;8.886;2024-02-21T00:58:44;91.97;;;53.40;;
34405;SDS011;20658;45.630;8.886;2024-02-21T01:01:20;95.53;;;55.38;;
34405;SDS011;20658;45.630;8.886;2024-02-21T01:03:54;101.25;;;58.05;;
34405;SDS011;20658;45.630;8.886;2024-02-21T01:06:28;105.72;;;59.95;;
34405;SDS011;20658;45.630;8.886;2024-02-21T01:08:58;94.38;;;56.92;;
34405;SDS011;20658;45.630;8.886;2024-02-21T01:11:26;97.72;;;54.03;;
34405;SDS011;20658;45.630;8.886;2024-02-21T01:13:55;90.18;;;52.47;;
34405;SDS011;20658;45.630;8.886;2024-02-21T01:16:24;86.15;;;49.92;;
34405;SDS011;20658;45.630;8.886;2024-02-21T01:18:53;95.68;;;53.95;;
34405;SDS011;20658;45.630;8.886;2024-02-21T01:21:21;80.90;;;47.50;;
34405;SDS011;20658;45.630;8.886;2024-02-21T01:23:50;78.32;;;46.40;;
34405;SDS011;20658;45.630;8.886;2024-02-21T01:26:20;80.85;;;44.30;;
34405;SDS011;20658;45.630;8.886;2024-02-21T01:28:48;81.80;;;48.70;;
34405;SDS011;20658;45.630;8.886;2024-02-21T01:31:17;87.82;;;50.40;;
34405;SDS011;20658;45.630;8.886;2024-02-21T01:33:46;81.13;;;47.58;;
34405;SDS011;20658;45.630;8.886;2024-02-21T01:36:15;78.82;;;48.17;;
34405;SDS011;20658;45.630;8.886;2024-02-21T01:38:43;83.43;;;49.95;;
34405;SDS011;20658;45.630;8.886;2024-02-21T01:41:12;88.28;;;49.15;;
34405;SDS011;20658;45.630;8.886;2024-02-21T01:43:42;85.20;;;47.72;;
34405;SDS011;20658;45.630;8.886;2024-02-21T01:46:16;89.85;;;49.42;;
34405;SDS011;20658;45.630;8.886;2024-02-21T01:48:44;79.75;;;46.05;;
34405;SDS011;20658;45.630;8.886;2024-02-21T01:51:13;82.32;;;49.65;;
34405;SDS011;20658;45.630;8.886;2024-02-21T01:53:43;84.65;;;48.05;;
34405;SDS011;20658;45.630;8.886;2024-02-21T01:56:12;85.82;;;47.03;;
34405;SDS011;20658;45.630;8.886;2024-02-21T01:58:43;82.85;;;47.75;;
34405;SDS011;20658;45.630;8.886;2024-02-21T02:01:18;88.22;;;48.75;;
34405;SDS011;20658;45.630;8.886;2024-02-21T02:03:46;90.55;;;50.15;;
34405;SDS011;20658;45.630;8.886;2024-02-21T02:06:20;79.55;;;47.13;;
34405;SDS011;20658;45.630;8.886;2024-02-21T02:08:53;75.20;;;42.75;;
34405;SDS011;20658;45.630;8.886;2024-02-21T02:11:27;71.35;;;40.72;;
34405;SDS011;20658;45.630;8.886;2024-02-21T02:13:57;68.47;;;38.05;;
34405;SDS011;20658;45.630;8.886;2024-02-21T02:16:25;67.05;;;37.42;;
34405;SDS011;20658;45.630;8.886;2024-02-21T02:18:54;66.03;;;38.00;;
34405;SDS011;20658;45.630;8.886;2024-02-21T02:21:29;59.50;;;34.70;;
34405;SDS011;20658;45.630;8.886;2024-02-21T02:24:02;54.63;;;30.75;;
34405;SDS011;20658;45.630;8.886;2024-02-21T02:26:32;59.92;;;29.77;;
34405;SDS011;20658;45.630;8.886;2024-02-21T02:29:01;54.80;;;30.42;;
34405;SDS011;20658;45.630;8.886;2024-02-21T02:31:29;55.25;;;28.48;;
34405;SDS011;20658;45.630;8.886;2024-02-21T02:33:58;53.33;;;29.65;;
34405;SDS011;20658;45.630;8.886;2024-02-21T02:36:26;48.78;;;25.13;;
34405;SDS011;20658;45.630;8.886;2024-02-21T02:38:55;45.58;;;25.60;;
34405;SDS011;20658;45.630;8.886;2024-02-21T02:41:30;41.65;;;21.88;;
34405;SDS011;20658;45.630;8.886;2024-02-21T02:43:58;38.50;;;20.05;;
34405;SDS011;20658;45.630;8.886;2024-02-21T02:46:27;31.92;;;14.95;;
34405;SDS011;20658;45.630;8.886;2024-02-21T02:48:55;36.15;;;17.60;;
34405;SDS011;20658;45.630;8.886;2024-02-21T02:51:29;30.98;;;14.30;;
34405;SDS011;20658;45.630;8.886;2024-02-21T02:54:02;26.65;;;13.27;;
34405;SDS011;20658;45.630;8.886;2024-02-21T02:56:37;24.00;;;10.80;;
34405;SDS011;20658;45.630;8.886;2024-02-21T02:59:11;23.63;;;12.05;;
34405;SDS011;20658;45.630;8.886;2024-02-21T03:01:44;24.27;;;10.80;;
34405;SDS011;20658;45.630;8.886;2024-02-21T03:04:13;21.17;;;8.50;;
34405;SDS011;20658;45.630;8.886;2024-02-21T03:06:41;20.35;;;8.98;;
34405;SDS011;20658;45.630;8.886;2024-02-21T03:09:15;21.42;;;8.40;;
34405;SDS011;20658;45.630;8.886;2024-02-21T03:11:50;20.40;;;8.52;;
34405;SDS011;20658;45.630;8.886;2024-02-21T03:14:23;19.55;;;8.13;;
34405;SDS011;20658;45.630;8.886;2024-02-21T03:16:57;19.75;;;8.13;;
34405;SDS011;20658;45.630;8.886;2024-02-21T03:19:27;20.15;;;8.68;;
34405;SDS011;20658;45.630;8.886;2024-02-21T03:22:01;21.13;;;8.10;;
34405;SDS011;20658;45.630;8.886;2024-02-21T03:24:31;18.70;;;7.97;;
34405;SDS011;20658;45.630;8.886;2024-02-21T03:27:06;22.35;;;8.48;;
34405;SDS011;20658;45.630;8.886;2024-02-21T03:29:34;21.38;;;8.85;;
34405;SDS011;20658;45.630;8.886;2024-02-21T03:32:08;21.67;;;8.60;;
34405;SDS011;20658;45.630;8.886;2024-02-21T03:34:42;21.70;;;8.95;;
34405;SDS011;20658;45.630;8.886;2024-02-21T03:37:10;21.08;;;8.95;;
34405;SDS011;20658;45.630;8.886;2024-02-21T03:39:45;20.52;;;8.38;;
34405;SDS011;20658;45.630;8.886;2024-02-21T03:42:20;21.73;;;8.85;;
34405;SDS011;20658;45.630;8.886;2024-02-21T03:44:48;18.58;;;7.93;;
34405;SDS011;20658;45.630;8.886;2024-02-21T03:47:22;19.83;;;8.63;;
34405;SDS011;20658;45.630;8.886;2024-02-21T03:49:50;21.65;;;9.30;;
34405;SDS011;20658;45.630;8.886;2024-02-21T03:52:24;21.55;;;8.90;;
34405;SDS011;20658;45.630;8.886;2024-02-21T03:54:52;24.67;;;10.00;;
34405;SDS011;20658;45.630;8.886;2024-02-21T03:57:22;21.95;;;9.10;;
34405;SDS011;20658;45.630;8.886;2024-02-21T03:59:51;21.67;;;9.13;;
34405;SDS011;20658;45.630;8.886;2024-02-21T04:02:19;22.88;;;9.45;;
34405;SDS011;20658;45.630;8.886;2024-02-21T04:04:48;20.83;;;8.98;;
34405;SDS011;20658;45.630;8.886;2024-02-21T04:07:17;22.75;;;9.20;;
34405;SDS011;20658;45.630;8.886;2024-02-21T04:09:46;19.77;;;8.50;;
34405;SDS011;20658;45.630;8.886;2024-02-21T04:12:14;21.42;;;9.63;;
34405;SDS011;20658;45.630;8.886;2024-02-21T04:14:44;19.38;;;7.88;;
34405;SDS011;20658;45.630;8.886;2024-02-21T04:17:12;22.48;;;8.77;;
34405;SDS011;20658;45.630;8.886;2024-02-21T04:19:41;17.73;;;7.20;;
34405;SDS011;20658;45.630;8.886;2024-02-21T04:22:11;17.05;;;6.30;;
34405;SDS011;20658;45.630;8.886;2024-02-21T04:24:40;14.95;;;6.25;;
34405;SDS011;20658;45.630;8.886;2024-02-21T04:27:08;15.63;;;6.07;;
34405;SDS011;20658;45.630;8.886;2024-02-21T04:29:37;16.33;;;6.75;;
34405;SDS011;20658;45.630;8.886;2024-02-21T04:32:07;12.60;;;6.10;;
34405;SDS011;20658;45.630;8.886;2024-02-21T04:34:36;14.35;;;6.05;;
34405;SDS011;20658;45.630;8.886;2024-02-21T04:37:05;18.05;;;5.82;;
34405;SDS011;20658;45.630;8.886;2024-02-21T04:39:33;13.75;;;5.30;;
34405;SDS011;20658;45.630;8.886;2024-02-21T04:42:02;15.50;;;5.53;;
34405;SDS011;20658;45.630;8.886;2024-02-21T04:44:30;16.15;;;6.60;;
34405;SDS011;20658;45.630;8.886;2024-02-21T04:46:58;13.77;;;5.75;;
34405;SDS011;20658;45.630;8.886;2024-02-21T04:49:28;15.18;;;5.20;;
34405;SDS011;20658;45.630;8.886;2024-02-21T04:51:57;11.20;;;4.72;;
34405;SDS011;20658;45.630;8.886;2024-02-21T04:54:30;11.38;;;4.45;;
34405;SDS011;20658;45.630;8.886;2024-02-21T04:56:59;8.80;;;3.90;;
34405;SDS011;20658;45.630;8.886;2024-02-21T04:59:28;9.48;;;3.90;;
34405;SDS011;20658;45.630;8.886;2024-02-21T05:01:57;11.60;;;4.63;;
34405;SDS011;20658;45.630;8.886;2024-02-21T05:04:32;10.52;;;3.53;;
34405;SDS011;20658;45.630;8.886;2024-02-21T05:07:08;7.03;;;3.63;;
34405;SDS011;20658;45.630;8.886;2024-02-21T05:09:38;9.52;;;3.45;;
34405;SDS011;20658;45.630;8.886;2024-02-21T05:12:11;6.85;;;3.10;;
34405;SDS011;20658;45.630;8.886;2024-02-21T05:14:40;9.02;;;3.40;;
34405;SDS011;20658;45.630;8.886;2024-02-21T05:17:08;8.43;;;3.45;;
34405;SDS011;20658;45.630;8.886;2024-02-21T05:19:38;9.43;;;3.50;;
34405;SDS011;20658;45.630;8.886;2024-02-21T05:22:07;5.50;;;2.97;;
34405;SDS011;20658;45.630;8.886;2024-02-21T05:24:35;9.25;;;2.97;;
34405;SDS011;20658;45.630;8.886;2024-02-21T05:27:09;7.35;;;3.05;;
34405;SDS011;20658;45.630;8.886;2024-02-21T05:29:37;10.93;;;2.50;;
34405;SDS011;20658;45.630;8.886;2024-02-21T05:32:06;8.43;;;2.50;;
34405;SDS011;20658;45.630;8.886;2024-02-21T05:34:41;5.70;;;2.28;;
34405;SDS011;20658;45.630;8.886;2024-02-21T05:37:15;6.05;;;2.25;;
34405;SDS011;20658;45.630;8.886;2024-02-21T05:39:43;6.65;;;1.88;;
34405;SDS011;20658;45.630;8.886;2024-02-21T05:42:17;6.28;;;2.30;;
34405;SDS011;20658;45.630;8.886;2024-02-21T05:44:46;7.80;;;2.05;;
34405;SDS011;20658;45.630;8.886;2024-02-21T05:47:14;6.47;;;2.15;;
34405;SDS011;20658;45.630;8.886;2024-02-21T05:49:45;7.03;;;2.25;;
34405;SDS011;20658;45.630;8.886;2024-02-21T05:52:13;5.60;;;2.53;;
34405;SDS011;20658;45.630;8.886;2024-02-21T05:54:42;5.70;;;2.03;;
34405;SDS011;20658;45.630;8.886;2024-02-21T05:57:11;5.65;;;2.00;;
34405;SDS011;20658;45.630;8.886;2024-02-21T05:59:40;10.20;;;3.00;;
34405;SDS011;20658;45.630;8.886;2024-02-21T06:02:08;8.30;;;3.13;;
34405;SDS011;20658;45.630;8.886;2024-02-21T06:04:37;8.57;;;3.20;;
34405;SDS011;20658;45.630;8.886;2024-02-21T06:07:07;10.27;;;2.75;;
34405;SDS011;20658;45.630;8.886;2024-02-21T06:09:36;8.73;;;3.00;;
34405;SDS011;20658;45.630;8.886;2024-02-21T06:12:04;6.82;;;2.72;;
34405;SDS011;20658;45.630;8.886;2024-02-21T06:14:38;10.20;;;3.40;;
34405;SDS011;20658;45.630;8.886;2024-02-21T06:17:12;7.90;;;2.75;;
34405;SDS011;20658;45.630;8.886;2024-02-21T06:19:45;8.68;;;3.00;;
34405;SDS011;20658;45.630;8.886;2024-02-21T06:22:20;6.15;;;2.35;;
34405;SDS011;20658;45.630;8.886;2024-02-21T06:24:54;8.63;;;2.60;;
34405;SDS011;20658;45.630;8.886;2024-02-21T06:27:27;6.40;;;2.20;;
34405;SDS011;20658;45.630;8.886;2024-02-21T06:30:01;7.13;;;3.05;;
34405;SDS011;20658;45.630;8.886;2024-02-21T06:32:35;7.10;;;2.83;;
34405;SDS011;20658;45.630;8.886;2024-02-21T06:35:04;13.75;;;5.43;;
34405;SDS011;20658;45.630;8.886;2024-02-21T06:37:40;33.85;;;15.35;;
34405;SDS011;20658;45.630;8.886;2024-02-21T06:40:08;34.88;;;15.65;;
34405;SDS011;20658;45.630;8.886;2024-02-21T06:42:37;45.13;;;24.80;;
34405;SDS011;20658;45.630;8.886;2024-02-21T06:45:06;50.78;;;27.95;;
34405;SDS011;20658;45.630;8.886;2024-02-21T06:47:35;60.47;;;32.42;;
34405;SDS011;20658;45.630;8.886;2024-02-21T06:50:04;76.57;;;38.20;;
34405;SDS011;20658;45.630;8.886;2024-02-21T06:52:41;87.68;;;48.35;;
34405;SDS011;20658;45.630;8.886;2024-02-21T06:55:15;102.75;;;53.50;;
34405;SDS011;20658;45.630;8.886;2024-02-21T06:57:44;89.82;;;52.45;;
34405;SDS011;20658;45.630;8.886;2024-02-21T07:00:19;75.70;;;40.67;;
34405;SDS011;20658;45.630;8.886;2024-02-21T07:02:49;56.53;;;31.00;;
34405;SDS011;20658;45.630;8.886;2024-02-21T07:05:17;50.95;;;27.85;;
34405;SDS011;20658;45.630;8.886;2024-02-21T07:07:47;35.40;;;18.38;;
34405;SDS011;20658;45.630;8.886;2024-02-21T07:10:16;28.70;;;13.63;;
34405;SDS011;20658;45.630;8.886;2024-02-21T07:12:45;26.27;;;11.75;;
34405;SDS011;20658;45.630;8.886;2024-02-21T07:15:13;20.48;;;8.05;;
34405;SDS011;20658;45.630;8.886;2024-02-21T07:17:42;22.67;;;10.20;;
34405;SDS011;20658;45.630;8.886;2024-02-21T07:20:11;23.55;;;11.05;;
34405;SDS011;20658;45.630;8.886;2024-02-21T07:22:39;19.45;;;10.10;;
34405;SDS011;20658;45.630;8.886;2024-02-21T07:25:09;18.65;;;6.97;;
34405;SDS011;20658;45.630;8.886;2024-02-21T07:27:38;17.60;;;6.55;;
34405;SDS011;20658;45.630;8.886;2024-02-21T07:30:08;16.10;;;6.68;;
34405;SDS011;20658;45.630;8.886;2024-02-21T07:32:37;14.32;;;7.13;;
34405;SDS011;20658;45.630;8.886;2024-02-21T07:35:06;18.38;;;6.65;;
34405;SDS011;20658;45.630;8.886;2024-02-21T07:37:38;18.50;;;6.65;;
34405;SDS011;20658;45.630;8.886;2024-02-21T07:40:11;15.27;;;5.18;;
34405;SDS011;20658;45.630;8.886;2024-02-21T07:42:42;17.73;;;6.05;;
34405;SDS011;20658;45.630;8.886;2024-02-21T07:45:11;28.58;;;6.22;;
34405;SDS011;20658;45.630;8.886;2024-02-21T07:47:40;17.65;;;5.68;;
34405;SDS011;20658;45.630;8.886;2024-02-21T07:50:09;17.85;;;5.70;;
34405;SDS011;20658;45.630;8.886;2024-02-21T07:52:38;18.30;;;5.68;;
34405;SDS011;20658;45.630;8.886;2024-02-21T07:55:07;12.65;;;5.28;;
34405;SDS011;20658;45.630;8.886;2024-02-21T07:57:38;10.20;;;4.57;;
34405;SDS011;20658;45.630;8.886;2024-02-21T08:00:07;13.70;;;5.10;;
34405;SDS011;20658;45.630;8.886;2024-02-21T08:02:41;10.05;;;4.30;;
34405;SDS011;20658;45.630;8.886;2024-02-21T08:05:10;15.75;;;5.82;;
34405;SDS011;20658;45.630;8.886;2024-02-21T08:07:39;14.40;;;5.85;;
34405;SDS011;20658;45.630;8.886;2024-02-21T08:10:07;16.52;;;5.75;;
34405;SDS011;20658;45.630;8.886;2024-02-21T08:12:38;19.33;;;7.80;;
34405;SDS011;20658;45.630;8.886;2024-02-21T08:15:07;21.83;;;8.43;;
34405;SDS011;20658;45.630;8.886;2024-02-21T08:17:37;22.38;;;8.15;;
34405;SDS011;20658;45.630;8.886;2024-02-21T08:20:06;26.38;;;9.18;;
34405;SDS011;20658;45.630;8.886;2024-02-21T08:22:37;24.17;;;8.40;;
34405;SDS011;20658;45.630;8.886;2024-02-21T08:25:06;26.90;;;9.60;;
34405;SDS011;20658;45.630;8.886;2024-02-21T08:27:41;22.45;;;8.63;;
34405;SDS011;20658;45.630;8.886;2024-02-21T08:30:16;23.63;;;9.88;;
34405;SDS011;20658;45.630;8.886;2024-02-21T08:32:45;24.92;;;10.95;;
34405;SDS011;20658;45.630;8.886;2024-02-21T08:35:14;27.52;;;12.57;;
34405;SDS011;20658;45.630;8.886;2024-02-21T08:37:45;23.63;;;10.82;;
34405;SDS011;20658;45.630;8.886;2024-02-21T08:40:14;22.95;;;10.45;;
34405;SDS011;20658;45.630;8.886;2024-02-21T08:42:53;26.83;;;14.90;;
34405;SDS011;20658;45.630;8.886;2024-02-21T08:45:22;32.30;;;14.57;;
34405;SDS011;20658;45.630;8.886;2024-02-21T08:47:50;28.42;;;14.02;;
34405;SDS011;20658;45.630;8.886;2024-02-21T08:50:19;28.13;;;15.25;;
34405;SDS011;20658;45.630;8.886;2024-02-21T08:52:47;27.70;;;13.63;;
34405;SDS011;20658;45.630;8.886;2024-02-21T08:55:16;28.33;;;14.40;;
34405;SDS011;20658;45.630;8.886;2024-02-21T08:57:45;27.38;;;14.75;;
34405;SDS011;20658;45.630;8.886;2024-02-21T09:00:16;31.23;;;15.10;;
34405;SDS011;20658;45.630;8.886;2024-02-21T09:02:47;31.77;;;16.92;;
34405;SDS011;20658;45.630;8.886;2024-02-21T09:05:16;31.45;;;15.35;;
34405;SDS011;20658;45.630;8.886;2024-02-21T09:07:45;30.77;;;16.92;;
34405;SDS011;20658;45.630;8.886;2024-02-21T09:10:13;30.90;;;16.88;;
34405;SDS011;20658;45.630;8.886;2024-02-21T09:12:47;33.58;;;19.40;;
34405;SDS011;20658;45.630;8.886;2024-02-21T09:15:17;30.77;;;17.08;;
34405;SDS011;20658;45.630;8.886;2024-02-21T09:17:46;33.03;;;18.80;;
34405;SDS011;20658;45.630;8.886;2024-02-21T09:20:14;33.95;;;19.73;;
34405;SDS011;20658;45.630;8.886;2024-02-21T09:22:44;35.83;;;20.90;;
34405;SDS011;20658;45.630;8.886;2024-02-21T09:25:13;38.90;;;21.52;;
34405;SDS011;20658;45.630;8.886;2024-02-21T09:27:43;37.83;;;21.90;;
34405;SDS011;20658;45.630;8.886;2024-02-21T09:30:12;36.70;;;21.63;;
34405;SDS011;20658;45.630;8.886;2024-02-21T09:32:43;42.75;;;22.90;;
34405;SDS011;20658;45.630;8.886;2024-02-21T09:35:11;38.25;;;22.00;;
34405;SDS011;20658;45.630;8.886;2024-02-21T09:37:40;40.80;;;23.05;;
34405;SDS011;20658;45.630;8.886;2024-02-21T09:40:14;40.78;;;20.80;;
34405;SDS011;20658;45.630;8.886;2024-02-21T09:42:44;40.72;;;23.08;;
34405;SDS011;20658;45.630;8.886;2024-02-21T09:47:55;41.85;;;24.27;;
34405;SDS011;20658;45.630;8.886;2024-02-21T09:50:47;37.53;;;23.45;;
34405;SDS011;20658;45.630;8.886;2024-02-21T09:53:18;40.13;;;23.30;;
34405;SDS011;20658;45.630;8.886;2024-02-21T09:55:47;40.67;;;24.77;;
34405;SDS011;20658;45.630;8.886;2024-02-21T09:58:16;41.85;;;23.45;;
34405;SDS011;20658;45.630;8.886;2024-02-21T10:00:46;39.28;;;23.95;;
34405;SDS011;20658;45.630;8.886;2024-02-21T10:03:21;39.55;;;25.10;;
34405;SDS011;20658;45.630;8.886;2024-02-21T10:05:49;40.00;;;24.30;;
34405;SDS011;20658;45.630;8.886;2024-02-21T10:08:19;39.78;;;24.65;;
34405;SDS011;20658;45.630;8.886;2024-02-21T10:10:48;41.53;;;24.38;;
34405;SDS011;20658;45.630;8.886;2024-02-21T10:13:24;41.00;;;23.92;;
34405;SDS011;20658;45.630;8.886;2024-02-21T10:16:00;41.42;;;25.63;;
34405;SDS011;20658;45.630;8.886;2024-02-21T10:18:32;41.17;;;26.75;;
34405;SDS011;20658;45.630;8.886;2024-02-21T10:21:02;40.85;;;25.08;;
34405;SDS011;20658;45.630;8.886;2024-02-21T10:23:41;44.67;;;25.70;;
34405;SDS011;20658;45.630;8.886;2024-02-21T10:26:16;48.80;;;27.38;;
34405;SDS011;20658;45.630;8.886;2024-02-21T10:28:52;45.25;;;25.00;;
34405;SDS011;20658;45.630;8.886;2024-02-21T10:31:26;45.00;;;26.83;;
34405;SDS011;20658;45.630;8.886;2024-02-21T10:34:02;45.22;;;27.98;;
34405;SDS011;20658;45.630;8.886;2024-02-21T10:36:31;46.13;;;29.90;;
34405;SDS011;20658;45.630;8.886;2024-02-21T10:39:05;58.13;;;38.20;;
34405;SDS011;20658;45.630;8.886;2024-02-21T10:41:40;51.83;;;34.55;;
34405;SDS011;20658;45.630;8.886;2024-02-21T10:44:11;49.85;;;32.10;;
34405;SDS011;20658;45.630;8.886;2024-02-21T10:46:40;51.55;;;33.22;;
34405;SDS011;20658;45.630;8.886;2024-02-21T10:49:16;45.97;;;30.95;;
34405;SDS011;20658;45.630;8.886;2024-02-21T10:51:59;46.97;;;30.38;;
34405;SDS011;20658;45.630;8.886;2024-02-21T10:54:39;45.50;;;29.65;;
34405;SDS011;20658;45.630;8.886;2024-02-21T10:57:18;46.03;;;30.33;;
34405;SDS011;20658;45.630;8.886;2024-02-21T10:59:52;50.42;;;31.50;;
34405;SDS011;20658;45.630;8.886;2024-02-21T11:02:28;55.83;;;37.53;;
34405;SDS011;20658;45.630;8.886;2024-02-21T11:04:59;56.92;;;36.55;;
34405;SDS011;20658;45.630;8.886;2024-02-21T11:07:35;55.78;;;39.17;;
34405;SDS011;20658;45.630;8.886;2024-02-21T11:10:05;57.58;;;37.17;;
34405;SDS011;20658;45.630;8.886;2024-02-21T11:12:48;53.40;;;38.13;;
34405;SDS011;20658;45.630;8.886;2024-02-21T11:15:25;57.83;;;39.25;;
34405;SDS011;20658;45.630;8.886;2024-02-21T11:17:59;57.33;;;40.90;;
34405;SDS011;20658;45.630;8.886;2024-02-21T11:20:33;66.57;;;44.60;;
34405;SDS011;20658;45.630;8.886;2024-02-21T11:23:07;58.58;;;42.53;;
34405;SDS011;20658;45.630;8.886;2024-02-21T11:25:42;61.22;;;42.25;;
34405;SDS011;20658;45.630;8.886;2024-02-21T11:28:10;59.33;;;43.42;;
34405;SDS011;20658;45.630;8.886;2024-02-21T11:30:44;63.42;;;44.90;;
34405;SDS011;20658;45.630;8.886;2024-02-21T11:33:18;68.00;;;50.17;;
34405;SDS011;20658;45.630;8.886;2024-02-21T11:35:52;75.72;;;54.80;;
34405;SDS011;20658;45.630;8.886;2024-02-21T11:38:22;79.65;;;54.17;;
34405;SDS011;20658;45.630;8.886;2024-02-21T11:40:56;81.68;;;59.45;;
34405;SDS011;20658;45.630;8.886;2024-02-21T11:43:30;88.90;;;63.03;;
34405;SDS011;20658;45.630;8.886;2024-02-21T11:46:04;79.35;;;56.95;;
34405;SDS011;20658;45.630;8.886;2024-02-21T11:48:33;77.32;;;55.20;;
34405;SDS011;20658;45.630;8.886;2024-02-21T11:51:03;75.25;;;53.05;;
34405;SDS011;20658;45.630;8.886;2024-02-21T11:53:32;71.30;;;51.92;;
34405;SDS011;20658;45.630;8.886;2024-02-21T11:56:06;71.35;;;49.83;;
34405;SDS011;20658;45.630;8.886;2024-02-21T11:58:35;72.72;;;48.63;;
34405;SDS011;20658;45.630;8.886;2024-02-21T12:01:03;62.75;;;45.70;;
34405;SDS011;20658;45.630;8.886;2024-02-21T12:03:38;69.38;;;49.28;;
34405;SDS011;20658;45.630;8.886;2024-02-21T12:06:09;70.18;;;49.40;;
34405;SDS011;20658;45.630;8.886;2024-02-21T12:08:41;75.15;;;53.28;;
34405;SDS011;20658;45.630;8.886;2024-02-21T12:11:19;77.32;;;53.90;;
34405;SDS011;20658;45.630;8.886;2024-02-21T12:13:59;74.82;;;53.00;;
34405;SDS011;20658;45.630;8.886;2024-02-21T12:16:35;69.68;;;50.63;;
34405;SDS011;20658;45.630;8.886;2024-02-21T12:19:09;71.47;;;52.17;;
34405;SDS011;20658;45.630;8.886;2024-02-21T12:21:45;76.38;;;54.03;;
34405;SDS011;20658;45.630;8.886;2024-02-21T12:24:18;74.80;;;54.35;;
34405;SDS011;20658;45.630;8.886;2024-02-21T12:26:55;76.40;;;57.42;;
34405;SDS011;20658;45.630;8.886;2024-02-21T12:29:30;78.18;;;57.08;;
34405;SDS011;20658;45.630;8.886;2024-02-21T12:32:04;76.50;;;55.03;;
34405;SDS011;20658;45.630;8.886;2024-02-21T12:34:37;75.57;;;54.10;;
34405;SDS011;20658;45.630;8.886;2024-02-21T12:37:12;74.95;;;53.30;;
34405;SDS011;20658;45.630;8.886;2024-02-21T12:39:47;70.63;;;53.85;;
34405;SDS011;20658;45.630;8.886;2024-02-21T12:42:16;75.45;;;54.65;;
34405;SDS011;20658;45.630;8.886;2024-02-21T12:44:44;70.60;;;54.08;;
34405;SDS011;20658;45.630;8.886;2024-02-21T12:47:13;73.50;;;55.60;;
34405;SDS011;20658;45.630;8.886;2024-02-21T12:49:41;76.95;;;53.03;;
34405;SDS011;20658;45.630;8.886;2024-02-21T12:52:10;69.35;;;51.97;;
34405;SDS011;20658;45.630;8.886;2024-02-21T12:54:41;71.47;;;52.25;;
34405;SDS011;20658;45.630;8.886;2024-02-21T12:57:15;75.15;;;52.80;;
34405;SDS011;20658;45.630;8.886;2024-02-21T12:59:48;73.55;;;52.25;;
34405;SDS011;20658;45.630;8.886;2024-02-21T13:02:17;72.43;;;53.75;;
34405;SDS011;20658;45.630;8.886;2024-02-21T13:04:52;69.85;;;52.33;;
34405;SDS011;20658;45.630;8.886;2024-02-21T13:07:26;71.10;;;52.90;;
34405;SDS011;20658;45.630;8.886;2024-02-21T13:10:03;73.32;;;53.97;;
34405;SDS011;20658;45.630;8.886;2024-02-21T13:12:32;75.05;;;53.70;;
34405;SDS011;20658;45.630;8.886;2024-02-21T13:15:06;73.82;;;53.78;;
34405;SDS011;20658;45.630;8.886;2024-02-21T13:17:38;77.18;;;55.08;;
34405;SDS011;20658;45.630;8.886;2024-02-21T13:20:07;74.82;;;55.67;;
34405;SDS011;20658;45.630;8.886;2024-02-21T13:22:38;76.03;;;56.15;;
34405;SDS011;20658;45.630;8.886;2024-02-21T13:25:12;75.50;;;54.78;;
34405;SDS011;20658;45.630;8.886;2024-02-21T13:27:44;71.95;;;53.15;;
34405;SDS011;20658;45.630;8.886;2024-02-21T13:30:13;73.20;;;52.67;;
34405;SDS011;20658;45.630;8.886;2024-02-21T13:32:49;73.68;;;53.75;;
34405;SDS011;20658;45.630;8.886;2024-02-21T13:35:22;78.15;;;55.90;;
34405;SDS011;20658;45.630;8.886;2024-02-21T13:37:59;71.53;;;53.08;;
34405;SDS011;20658;45.630;8.886;2024-02-21T13:40:33;79.43;;;54.92;;
34405;SDS011;20658;45.630;8.886;2024-02-21T13:43:02;75.78;;;55.10;;
34405;SDS011;20658;45.630;8.886;2024-02-21T13:45:36;72.05;;;54.95;;
34405;SDS011;20658;45.630;8.886;2024-02-21T13:48:05;73.38;;;52.30;;
34405;SDS011;20658;45.630;8.886;2024-02-21T13:50:43;72.07;;;51.90;;
34405;SDS011;20658;45.630;8.886;2024-02-21T13:53:13;77.90;;;55.13;;
34405;SDS011;20658;45.630;8.886;2024-02-21T13:55:47;75.35;;;52.90;;
34405;SDS011;20658;45.630;8.886;2024-02-21T13:58:20;71.10;;;51.85;;
34405;SDS011;20658;45.630;8.886;2024-02-21T14:00:54;72.72;;;51.28;;
34405;SDS011;20658;45.630;8.886;2024-02-21T14:03:28;73.30;;;53.15;;
34405;SDS011;20658;45.630;8.886;2024-02-21T14:06:02;73.55;;;54.83;;
34405;SDS011;20658;45.630;8.886;2024-02-21T14:08:33;71.40;;;53.15;;
34405;SDS011;20658;45.630;8.886;2024-02-21T14:11:02;79.03;;;55.73;;
34405;SDS011;20658;45.630;8.886;2024-02-21T14:13:37;67.50;;;50.80;;
34405;SDS011;20658;45.630;8.886;2024-02-21T14:16:11;70.10;;;52.13;;
34405;SDS011;20658;45.630;8.886;2024-02-21T14:18:40;73.13;;;55.63;;
34405;SDS011;20658;45.630;8.886;2024-02-21T14:21:14;78.18;;;57.67;;
34405;SDS011;20658;45.630;8.886;2024-02-21T14:23:49;74.22;;;55.20;;
34405;SDS011;20658;45.630;8.886;2024-02-21T14:26:24;77.97;;;58.08;;
34405;SDS011;20658;45.630;8.886;2024-02-21T14:28:57;77.72;;;57.08;;
34405;SDS011;20658;45.630;8.886;2024-02-21T14:31:31;84.32;;;59.60;;
34405;SDS011;20658;45.630;8.886;2024-02-21T14:34:05;76.65;;;56.20;;
34405;SDS011;20658;45.630;8.886;2024-02-21T14:36:39;75.32;;;57.78;;
34405;SDS011;20658;45.630;8.886;2024-02-21T14:39:09;78.45;;;56.35;;
34405;SDS011;20658;45.630;8.886;2024-02-21T14:41:38;84.07;;;59.75;;
34405;SDS011;20658;45.630;8.886;2024-02-21T14:44:11;82.50;;;59.40;;
34405;SDS011;20658;45.630;8.886;2024-02-21T14:46:45;79.85;;;60.90;;
34405;SDS011;20658;45.630;8.886;2024-02-21T14:49:19;81.68;;;59.35;;
34405;SDS011;20658;45.630;8.886;2024-02-21T14:51:52;80.70;;;58.22;;